McAlester, Oklahoma
Current Conditions -  °F | °C
As of 10:53 AM on Friday 24 Oct 2014 (Local Time) from KMLC Reporting Station
Clear Clear  
Wind Chill: 69°   Ceiling: Unl
Heat Index: 69°   Visibility: 10mi
Dew Point: 54°   Wind: 9mph
Humidity: 58%   Direction: 180°S
Pressure: 30.17"   Gusts: 16mph
Location:  34.93°N, 95.77°W
Report Text: KMLC 241553Z AUTO 18008G14KT 130V210 10SM CLR 21/12 A3017 RMK AO2 SLP211 T02060122
Loading
Personal Weather Stations






























Interactive Weather Map
Tropical Storm Tracking
New forecast layout! Learn more

10-Day Weather Forecast

Advertisements
Track Severe Weather on mobile